Time;durP1;ratioP1;P1;durP2;ratioP2;P2;SDS_P1;SDS_P2;PMS_P1;PMS_P2;Temp;Humidity;BMP_temperature;BMP_pressure;BME280_temperature;BME280_humidity;BME280_pressure;Samples;Min_cycle;Max_cycle;Signal;HPM_P1;HPM_P2
2021/07/01 00:02:18;;;;;;;1.02;0.57;;;;;;;;;;4984958;28;20600;-79
2021/07/01 00:04:44;;;;;;;0.85;0.38;;;;;;;;;;4980027;28;20050;-79
2021/07/01 00:07:11;;;;;;;1.33;0.60;;;;;;;;;;4985181;28;20049;-79
2021/07/01 00:09:37;;;;;;;1.70;0.70;;;;;;;;;;4983215;28;20054;-80
2021/07/01 00:12:05;;;;;;;0.65;0.40;;;;;;;;;;4979368;28;20054;-79
2021/07/01 00:14:31;;;;;;;2.45;0.65;;;;;;;;;;4978822;28;20051;-80
2021/07/01 00:16:59;;;;;;;1.45;0.75;;;;;;;;;;4991142;28;20438;-81
2021/07/01 00:19:26;;;;;;;0.90;0.47;;;;;;;;;;4978231;28;20050;-80
2021/07/01 00:21:53;;;;;;;0.85;0.55;;;;;;;;;;4981760;28;20538;-80
2021/07/01 00:24:19;;;;;;;1.02;0.60;;;;;;;;;;4995234;28;20090;-79
2021/07/01 00:26:46;;;;;;;1.00;0.50;;;;;;;;;;4995370;28;20043;-79
2021/07/01 00:29:12;;;;;;;1.20;0.70;;;;;;;;;;4988755;28;20043;-80
2021/07/01 00:31:39;;;;;;;4.32;1.25;;;;;;;;;;4977862;28;20483;-79
2021/07/01 00:34:06;;;;;;;1.27;0.73;;;;;;;;;;4994788;28;20047;-79
2021/07/01 00:36:33;;;;;;;1.27;0.77;;;;;;;;;;4990063;28;20043;-79
2021/07/01 00:39:00;;;;;;;2.35;0.50;;;;;;;;;;4994719;28;20547;-79
2021/07/01 00:41:26;;;;;;;1.23;0.77;;;;;;;;;;4984169;28;20053;-80
2021/07/01 00:43:53;;;;;;;3.67;0.90;;;;;;;;;;4993135;28;20495;-79
2021/07/01 00:46:19;;;;;;;1.60;0.80;;;;;;;;;;4975673;28;20385;-79
2021/07/01 00:48:46;;;;;;;1.38;0.90;;;;;;;;;;4979110;28;20051;-80
2021/07/01 00:51:14;;;;;;;1.45;0.60;;;;;;;;;;4978121;28;20049;-79
2021/07/01 00:53:40;;;;;;;2.25;1.23;;;;;;;;;;4982783;28;20054;-79
2021/07/01 00:56:09;;;;;;;1.92;1.13;;;;;;;;;;4980795;28;20701;-80
2021/07/01 00:58:36;;;;;;;1.17;0.75;;;;;;;;;;4985817;28;20462;-79
2021/07/01 01:01:04;;;;;;;2.38;0.90;;;;;;;;;;4977593;28;20051;-79
2021/07/01 01:03:32;;;;;;;1.35;0.80;;;;;;;;;;4988273;28;20047;-80
2021/07/01 01:05:59;;;;;;;4.28;1.23;;;;;;;;;;4975491;28;20065;-80
2021/07/01 01:08:27;;;;;;;1.10;0.60;;;;;;;;;;4985834;28;20045;-80
2021/07/01 01:10:54;;;;;;;2.35;0.85;;;;;;;;;;4994259;28;20053;-80
2021/07/01 01:13:26;;;;;;;1.20;0.90;;;;;;;;;;4994370;28;20045;-79
2021/07/01 01:15:54;;;;;;;2.17;0.70;;;;;;;;;;4994295;28;20046;-79
2021/07/01 01:18:21;;;;;;;2.53;0.80;;;;;;;;;;4994300;28;20046;-79
2021/07/01 01:20:48;;;;;;;1.40;0.60;;;;;;;;;;4994343;28;20054;-79
2021/07/01 01:23:15;;;;;;;1.13;0.77;;;;;;;;;;4994500;28;20050;-79
2021/07/01 01:25:43;;;;;;;1.05;0.70;;;;;;;;;;4994518;28;20058;-79
2021/07/01 01:28:10;;;;;;;2.08;0.75;;;;;;;;;;4974855;28;20526;-80
2021/07/01 01:30:37;;;;;;;1.77;0.47;;;;;;;;;;4975094;28;20057;-79
2021/07/01 01:33:05;;;;;;;1.23;0.80;;;;;;;;;;4987720;28;20495;-79
2021/07/01 01:35:31;;;;;;;1.42;0.60;;;;;;;;;;4979183;28;20046;-79
2021/07/01 01:37:58;;;;;;;1.15;0.73;;;;;;;;;;4976647;28;20047;-79
2021/07/01 01:40:26;;;;;;;1.45;0.65;;;;;;;;;;4993842;28;21418;-79
2021/07/01 01:42:52;;;;;;;1.23;0.75;;;;;;;;;;4994202;28;20046;-79
2021/07/01 01:45:19;;;;;;;1.42;0.70;;;;;;;;;;4992964;28;20055;-81
2021/07/01 01:47:47;;;;;;;1.27;0.80;;;;;;;;;;4994258;28;20051;-80
2021/07/01 01:50:16;;;;;;;1.63;0.73;;;;;;;;;;4994144;28;20092;-79
2021/07/01 01:52:43;;;;;;;2.50;0.95;;;;;;;;;;4994170;28;20061;-79
2021/07/01 01:55:12;;;;;;;1.65;0.80;;;;;;;;;;4994577;28;20046;-79
2021/07/01 01:57:41;;;;;;;0.70;0.45;;;;;;;;;;4994422;28;20078;-80
2021/07/01 02:00:09;;;;;;;2.15;1.02;;;;;;;;;;4994269;28;20050;-79
2021/07/01 02:02:35;;;;;;;1.65;0.95;;;;;;;;;;4994142;28;20058;-79
2021/07/01 02:05:02;;;;;;;1.38;0.70;;;;;;;;;;4992082;28;20046;-82
2021/07/01 02:07:28;;;;;;;2.10;0.90;;;;;;;;;;4974711;28;20578;-81
2021/07/01 02:09:55;;;;;;;1.27;0.65;;;;;;;;;;4975153;28;20446;-80
2021/07/01 02:12:21;;;;;;;1.88;0.90;;;;;;;;;;4975112;28;20049;-79
2021/07/01 02:14:49;;;;;;;2.42;1.02;;;;;;;;;;4975198;28;20442;-80
2021/07/01 02:17:16;;;;;;;1.40;0.73;;;;;;;;;;4975322;28;20042;-79
2021/07/01 02:19:42;;;;;;;2.22;0.80;;;;;;;;;;4975091;28;20046;-79
2021/07/01 02:22:09;;;;;;;1.48;0.68;;;;;;;;;;4975669;28;20058;-81
2021/07/01 02:24:35;;;;;;;1.25;0.80;;;;;;;;;;4975201;28;20047;-80
2021/07/01 02:27:02;;;;;;;1.25;0.70;;;;;;;;;;4993000;28;20402;-81
2021/07/01 02:29:29;;;;;;;1.70;0.88;;;;;;;;;;4998248;28;20083;-81
2021/07/01 02:31:57;;;;;;;1.38;0.88;;;;;;;;;;4998848;28;20050;-79
2021/07/01 02:34:23;;;;;;;1.30;0.57;;;;;;;;;;4999239;28;20054;-79
2021/07/01 02:36:49;;;;;;;1.83;0.82;;;;;;;;;;4983100;28;20065;-80
2021/07/01 02:39:16;;;;;;;2.65;1.02;;;;;;;;;;4980102;28;20047;-80
2021/07/01 02:41:42;;;;;;;1.50;0.93;;;;;;;;;;4978592;28;20053;-81
2021/07/01 02:44:09;;;;;;;1.33;0.82;;;;;;;;;;4979773;28;20051;-81
2021/07/01 02:46:36;;;;;;;1.83;1.02;;;;;;;;;;4980620;28;20051;-81
2021/07/01 02:49:04;;;;;;;3.10;0.80;;;;;;;;;;4979555;28;20047;-79
2021/07/01 02:51:30;;;;;;;1.30;0.68;;;;;;;;;;4980002;28;20102;-79
2021/07/01 02:53:57;;;;;;;2.22;0.90;;;;;;;;;;4980447;28;20043;-80
2021/07/01 02:56:23;;;;;;;1.20;0.70;;;;;;;;;;4979947;28;20051;-81
2021/07/01 02:58:50;;;;;;;1.73;0.80;;;;;;;;;;4980154;28;20050;-80
2021/07/01 03:01:16;;;;;;;1.92;1.00;;;;;;;;;;4980247;28;20417;-80
2021/07/01 03:03:43;;;;;;;2.15;1.00;;;;;;;;;;4980753;28;20496;-80
2021/07/01 03:06:13;;;;;;;1.77;1.00;;;;;;;;;;4988382;28;20387;-81
2021/07/01 03:08:40;;;;;;;2.28;1.10;;;;;;;;;;4983417;28;20050;-81
2021/07/01 03:11:07;;;;;;;2.22;1.23;;;;;;;;;;4980361;28;20051;-81
2021/07/01 03:13:33;;;;;;;2.67;1.20;;;;;;;;;;4981415;28;20061;-82
2021/07/01 03:16:00;;;;;;;1.80;1.00;;;;;;;;;;4981611;28;20062;-82
2021/07/01 03:18:26;;;;;;;4.88;1.17;;;;;;;;;;5000263;28;20502;-80
2021/07/01 03:20:53;;;;;;;4.43;1.45;;;;;;;;;;5000411;28;20050;-81
2021/07/01 03:23:21;;;;;;;2.03;1.42;;;;;;;;;;5000468;28;20114;-81
2021/07/01 03:25:48;;;;;;;2.17;1.38;;;;;;;;;;5001305;28;20484;-81
2021/07/01 03:28:14;;;;;;;2.33;1.20;;;;;;;;;;4999028;28;20050;-79
2021/07/01 03:30:41;;;;;;;3.08;1.40;;;;;;;;;;4998809;28;20165;-79
2021/07/01 03:33:07;;;;;;;5.22;1.70;;;;;;;;;;4998018;28;20495;-80
2021/07/01 03:35:34;;;;;;;3.58;1.92;;;;;;;;;;4997757;28;20069;-81
2021/07/01 03:38:00;;;;;;;2.95;1.77;;;;;;;;;;4998347;28;20046;-81
2021/07/01 03:40:28;;;;;;;3.35;1.83;;;;;;;;;;4998458;28;20054;-80
2021/07/01 03:42:55;;;;;;;3.38;1.77;;;;;;;;;;4999183;28;20042;-79
2021/07/01 03:45:22;;;;;;;2.72;1.52;;;;;;;;;;4999242;28;20407;-79
2021/07/01 03:47:48;;;;;;;3.25;2.08;;;;;;;;;;4999558;28;20392;-80
2021/07/01 03:50:14;;;;;;;3.63;1.70;;;;;;;;;;4999380;28;20046;-82
2021/07/01 03:52:41;;;;;;;3.67;1.90;;;;;;;;;;4999837;28;20046;-79
2021/07/01 03:55:08;;;;;;;3.63;1.80;;;;;;;;;;4999426;28;20053;-79
2021/07/01 03:57:36;;;;;;;3.67;1.95;;;;;;;;;;4990861;28;20415;-81
2021/07/01 04:00:04;;;;;;;2.95;1.67;;;;;;;;;;4999322;28;20054;-81
2021/07/01 04:02:30;;;;;;;2.70;1.80;;;;;;;;;;4999992;28;20406;-79
2021/07/01 04:04:57;;;;;;;3.88;1.88;;;;;;;;;;4994382;28;20069;-82
2021/07/01 04:07:23;;;;;;;3.92;2.20;;;;;;;;;;4980506;28;20050;-81
2021/07/01 04:09:50;;;;;;;3.28;2.03;;;;;;;;;;4980138;28;20047;-79
2021/07/01 04:12:16;;;;;;;3.40;1.95;;;;;;;;;;4980153;28;20117;-82
2021/07/01 04:14:44;;;;;;;3.33;2.13;;;;;;;;;;4980314;28;20058;-80
2021/07/01 04:17:10;;;;;;;4.15;2.45;;;;;;;;;;4980606;28;20050;-80
2021/07/01 04:19:37;;;;;;;4.82;2.60;;;;;;;;;;4981183;28;20051;-79
2021/07/01 04:22:04;;;;;;;4.53;2.35;;;;;;;;;;4980863;28;20082;-81
2021/07/01 04:24:30;;;;;;;3.80;2.40;;;;;;;;;;4980369;28;20057;-81
2021/07/01 04:26:57;;;;;;;4.88;2.65;;;;;;;;;;4997334;28;20050;-81
2021/07/01 04:29:23;;;;;;;4.15;1.85;;;;;;;;;;5000110;28;20050;-82
2021/07/01 04:31:51;;;;;;;4.22;2.17;;;;;;;;;;5000698;28;20069;-81
2021/07/01 04:34:17;;;;;;;4.65;2.90;;;;;;;;;;5001346;28;20056;-81
2021/07/01 04:36:44;;;;;;;4.60;2.47;;;;;;;;;;4982048;28;20055;-80
2021/07/01 04:39:10;;;;;;;3.35;2.03;;;;;;;;;;4982390;28;20047;-82
2021/07/01 04:41:37;;;;;;;5.75;2.78;;;;;;;;;;4981525;28;20046;-82
2021/07/01 04:44:04;;;;;;;3.78;2.10;;;;;;;;;;4979120;28;20050;-79
2021/07/01 04:46:31;;;;;;;4.47;2.33;;;;;;;;;;4984965;28;20086;-80
2021/07/01 04:48:59;;;;;;;4.10;2.20;;;;;;;;;;4995091;28;20053;-79
2021/07/01 04:51:26;;;;;;;5.22;2.28;;;;;;;;;;4994355;28;20137;-79
2021/07/01 04:53:52;;;;;;;5.13;2.63;;;;;;;;;;4995436;28;20057;-79
2021/07/01 04:56:19;;;;;;;3.53;2.08;;;;;;;;;;4994890;28;20053;-81
2021/07/01 04:58:46;;;;;;;5.72;2.55;;;;;;;;;;4986367;28;20050;-79
2021/07/01 05:01:13;;;;;;;4.68;2.90;;;;;;;;;;4995140;28;20046;-80
2021/07/01 05:03:39;;;;;;;3.92;2.33;;;;;;;;;;4994878;28;20054;-80
2021/07/01 05:06:07;;;;;;;5.05;2.13;;;;;;;;;;4995333;28;20046;-81
2021/07/01 05:08:33;;;;;;;3.83;2.20;;;;;;;;;;4995510;28;20407;-79
2021/07/01 05:11:00;;;;;;;4.32;2.22;;;;;;;;;;4995059;28;20042;-79
2021/07/01 05:13:26;;;;;;;5.50;2.90;;;;;;;;;;4994631;28;20045;-79
2021/07/01 05:15:53;;;;;;;3.60;2.20;;;;;;;;;;4994509;28;20496;-80
2021/07/01 05:18:19;;;;;;;3.78;2.42;;;;;;;;;;4994652;28;20081;-79
2021/07/01 05:20:46;;;;;;;5.28;2.70;;;;;;;;;;4995101;28;20057;-80
2021/07/01 05:23:14;;;;;;;4.40;2.30;;;;;;;;;;4989320;28;20491;-80
2021/07/01 05:25:41;;;;;;;3.95;2.33;;;;;;;;;;4983432;28;20053;-79
2021/07/01 05:28:11;;;;;;;4.05;2.17;;;;;;;;;;4994827;28;20050;-79
2021/07/01 05:30:38;;;;;;;3.15;1.90;;;;;;;;;;4994269;28;20136;-80
2021/07/01 05:33:04;;;;;;;9.15;2.58;;;;;;;;;;4993973;28;20510;-80
2021/07/01 05:35:31;;;;;;;5.28;2.22;;;;;;;;;;4994039;28;20057;-79
2021/07/01 05:37:57;;;;;;;4.45;2.70;;;;;;;;;;4994314;28;20050;-79
2021/07/01 05:40:25;;;;;;;6.00;2.65;;;;;;;;;;4994015;28;20490;-80
2021/07/01 05:42:52;;;;;;;3.65;2.30;;;;;;;;;;4994203;28;20042;-80
2021/07/01 05:45:18;;;;;;;4.03;2.03;;;;;;;;;;4993879;28;20050;-80
2021/07/01 05:47:46;;;;;;;6.88;2.90;;;;;;;;;;4994073;28;20478;-81
2021/07/01 05:50:13;;;;;;;4.57;2.40;;;;;;;;;;4994111;28;20046;-80
2021/07/01 05:52:41;;;;;;;4.10;2.50;;;;;;;;;;4994669;28;20062;-79
2021/07/01 05:55:09;;;;;;;12.27;3.10;;;;;;;;;;4985179;28;20057;-80
2021/07/01 05:57:37;;;;;;;4.80;2.35;;;;;;;;;;4994201;28;20054;-79
2021/07/01 06:00:05;;;;;;;4.70;2.60;;;;;;;;;;4994771;28;20046;-80
2021/07/01 06:02:32;;;;;;;4.70;2.78;;;;;;;;;;4996464;28;20047;-80
2021/07/01 06:04:58;;;;;;;5.03;2.53;;;;;;;;;;4980408;28;20046;-80
2021/07/01 06:07:25;;;;;;;4.55;2.53;;;;;;;;;;4979019;28;20051;-80
2021/07/01 06:09:54;;;;;;;4.35;2.63;;;;;;;;;;4978844;28;20050;-80
2021/07/01 06:12:22;;;;;;;5.03;2.85;;;;;;;;;;4978241;28;20085;-80
2021/07/01 06:14:50;;;;;;;4.35;2.60;;;;;;;;;;4994857;28;20054;-80
2021/07/01 06:17:18;;;;;;;4.90;2.20;;;;;;;;;;4997586;28;20058;-80
2021/07/01 06:19:47;;;;;;;4.13;2.53;;;;;;;;;;4997825;28;20046;-79
2021/07/01 06:22:14;;;;;;;4.32;3.10;;;;;;;;;;4997958;28;20242;-80
2021/07/01 06:24:40;;;;;;;5.53;3.22;;;;;;;;;;4982333;28;20050;-80
2021/07/01 06:27:07;;;;;;;4.78;3.17;;;;;;;;;;4978920;28;20046;-81
2021/07/01 06:29:33;;;;;;;6.03;2.40;;;;;;;;;;4997842;28;20054;-80
2021/07/01 06:32:02;;;;;;;5.85;3.13;;;;;;;;;;4997678;28;20050;-80
2021/07/01 06:34:28;;;;;;;4.20;2.63;;;;;;;;;;4997773;28;20054;-79
2021/07/01 06:36:58;;;;;;;11.15;3.55;;;;;;;;;;4998023;28;20057;-79
2021/07/01 06:39:25;;;;;;;4.53;3.63;;;;;;;;;;4997897;28;20070;-80
2021/07/01 06:41:54;;;;;;;5.90;3.25;;;;;;;;;;4997603;28;20042;-80
2021/07/01 06:44:21;;;;;;;5.95;3.92;;;;;;;;;;4985935;28;20051;-82
2021/07/01 06:46:48;;;;;;;5.40;3.50;;;;;;;;;;4978431;28;20062;-80
2021/07/01 06:49:16;;;;;;;4.95;3.08;;;;;;;;;;4978136;28;20047;-80
2021/07/01 06:51:43;;;;;;;6.82;3.38;;;;;;;;;;4978553;28;20073;-80
2021/07/01 06:54:13;;;;;;;7.20;3.38;;;;;;;;;;4978419;28;20530;-80
2021/07/01 06:56:40;;;;;;;4.03;2.83;;;;;;;;;;4978518;28;20066;-80
2021/07/01 06:59:08;;;;;;;6.22;3.10;;;;;;;;;;4978263;28;20488;-80
2021/07/01 07:01:35;;;;;;;4.63;2.70;;;;;;;;;;4978697;28;20054;-80
2021/07/01 07:04:01;;;;;;;3.63;2.42;;;;;;;;;;4986839;28;20050;-82
2021/07/01 07:06:29;;;;;;;6.05;3.42;;;;;;;;;;4997482;28;20050;-81
2021/07/01 07:08:56;;;;;;;5.07;2.85;;;;;;;;;;4997806;28;20046;-82
2021/07/01 07:11:23;;;;;;;4.30;2.10;;;;;;;;;;4997677;28;20234;-81
2021/07/01 07:13:49;;;;;;;4.32;2.70;;;;;;;;;;4993493;28;20049;-81
2021/07/01 07:16:17;;;;;;;4.57;2.72;;;;;;;;;;4977423;28;20050;-81
2021/07/01 07:18:44;;;;;;;5.25;2.53;;;;;;;;;;4976849;28;20738;-80
2021/07/01 07:21:15;;;;;;;4.78;2.70;;;;;;;;;;4977205;28;20043;-81
2021/07/01 07:23:43;;;;;;;5.10;2.45;;;;;;;;;;4977059;28;20050;-82
2021/07/01 07:26:15;;;;;;;5.55;2.25;;;;;;;;;;4987860;28;20049;-82
2021/07/01 07:28:43;;;;;;;4.70;2.65;;;;;;;;;;4996747;28;20513;-82
2021/07/01 07:31:17;;;;;;;3.95;2.50;;;;;;;;;;4996887;28;20054;-80
2021/07/01 07:33:44;;;;;;;3.97;2.55;;;;;;;;;;4996614;28;20050;-80
2021/07/01 07:36:11;;;;;;;4.55;2.85;;;;;;;;;;4993019;28;20054;-81
2021/07/01 07:38:38;;;;;;;4.03;2.40;;;;;;;;;;4977834;28;20073;-81
2021/07/01 07:41:06;;;;;;;3.88;2.30;;;;;;;;;;4977398;28;20491;-81
2021/07/01 07:43:32;;;;;;;4.22;2.67;;;;;;;;;;4980818;28;20042;-82
2021/07/01 07:45:59;;;;;;;3.35;2.50;;;;;;;;;;4996437;28;20050;-81
2021/07/01 07:48:25;;;;;;;4.20;2.55;;;;;;;;;;4996984;28;20057;-81
2021/07/01 07:50:53;;;;;;;3.63;2.22;;;;;;;;;;4996437;28;20076;-80
2021/07/01 07:53:22;;;;;;;4.47;2.20;;;;;;;;;;4996197;28;20057;-80
2021/07/01 07:55:51;;;;;;;4.80;2.53;;;;;;;;;;4978916;28;20077;-81
2021/07/01 07:58:20;;;;;;;4.22;2.55;;;;;;;;;;4990022;28;20053;-80
2021/07/01 08:00:46;;;;;;;3.72;2.20;;;;;;;;;;4996211;28;20049;-80
2021/07/01 08:03:13;;;;;;;5.28;2.40;;;;;;;;;;4995602;28;20126;-81
2021/07/01 08:05:40;;;;;;;4.75;2.65;;;;;;;;;;4976262;28;20050;-79
2021/07/01 08:08:11;;;;;;;3.53;2.17;;;;;;;;;;4976921;28;20130;-80
2021/07/01 08:10:40;;;;;;;2.78;1.75;;;;;;;;;;4977250;28;20046;-79
2021/07/01 08:13:08;;;;;;;3.38;2.20;;;;;;;;;;4976062;28;20051;-81
2021/07/01 08:15:37;;;;;;;3.33;1.90;;;;;;;;;;4995010;28;20054;-79
2021/07/01 08:18:05;;;;;;;4.50;2.40;;;;;;;;;;4995539;28;20050;-79
2021/07/01 08:20:32;;;;;;;5.57;2.67;;;;;;;;;;4987690;28;20058;-80
2021/07/01 08:22:58;;;;;;;3.72;2.25;;;;;;;;;;4976217;28;20053;-79
2021/07/01 08:25:26;;;;;;;4.20;2.28;;;;;;;;;;4975607;28;20058;-80
2021/07/01 08:27:54;;;;;;;5.43;2.22;;;;;;;;;;4976248;28;20046;-79
2021/07/01 08:30:22;;;;;;;3.70;2.10;;;;;;;;;;4976138;28;20491;-80
2021/07/01 08:32:54;;;;;;;4.13;2.33;;;;;;;;;;4984147;28;20069;-81
2021/07/01 08:35:23;;;;;;;3.72;2.40;;;;;;;;;;4979917;28;20051;-79
2021/07/01 08:37:52;;;;;;;3.63;2.20;;;;;;;;;;4976088;28;20411;-80
2021/07/01 08:40:20;;;;;;;3.97;2.85;;;;;;;;;;4976192;28;20058;-81
2021/07/01 08:42:47;;;;;;;3.47;2.22;;;;;;;;;;4976633;28;20062;-80
2021/07/01 08:45:15;;;;;;;3.83;2.13;;;;;;;;;;4990261;28;20050;-81
2021/07/01 08:47:43;;;;;;;5.78;2.42;;;;;;;;;;4995457;28;20053;-80
2021/07/01 08:50:15;;;;;;;3.70;2.47;;;;;;;;;;4995250;28;20109;-81
2021/07/01 08:52:48;;;;;;;4.85;2.80;;;;;;;;;;4995417;28;20459;-80
2021/07/01 08:55:19;;;;;;;3.92;2.60;;;;;;;;;;4994725;28;20050;-81
2021/07/01 08:57:49;;;;;;;7.57;2.90;;;;;;;;;;4995257;28;20052;-81
2021/07/01 09:00:17;;;;;;;3.47;2.45;;;;;;;;;;4994770;28;20045;-80
2021/07/01 09:02:45;;;;;;;4.22;2.70;;;;;;;;;;4985290;28;20042;-81
2021/07/01 09:05:15;;;;;;;4.38;2.58;;;;;;;;;;4986764;28;20586;-81
2021/07/01 09:07:49;;;;;;;3.88;2.28;;;;;;;;;;4994737;28;20050;-81
2021/07/01 09:10:17;;;;;;;4.35;2.78;;;;;;;;;;4995193;28;20046;-81
2021/07/01 09:12:48;;;;;;;3.70;2.38;;;;;;;;;;4987631;28;20054;-81
2021/07/01 09:15:15;;;;;;;4.07;2.28;;;;;;;;;;4976230;28;20514;-81
2021/07/01 09:17:48;;;;;;;3.63;2.42;;;;;;;;;;4995729;28;20054;-80
2021/07/01 09:20:19;;;;;;;3.22;2.38;;;;;;;;;;4995072;28;20101;-83
2021/07/01 09:22:47;;;;;;;3.47;2.28;;;;;;;;;;4995030;28;20057;-81
2021/07/01 09:25:14;;;;;;;3.28;1.77;;;;;;;;;;4994733;28;20050;-82
2021/07/01 09:27:43;;;;;;;2.33;1.48;;;;;;;;;;4995162;28;20054;-83
2021/07/01 09:30:10;;;;;;;4.20;1.92;;;;;;;;;;4994392;28;20133;-81
2021/07/01 09:32:38;;;;;;;3.75;2.08;;;;;;;;;;4994171;28;20050;-81
2021/07/01 09:35:07;;;;;;;2.97;1.70;;;;;;;;;;4995271;28;20507;-81
2021/07/01 09:37:40;;;;;;;4.68;1.63;;;;;;;;;;4982504;28;20056;-81
2021/07/01 09:40:08;;;;;;;2.10;1.23;;;;;;;;;;4981316;28;20047;-81
2021/07/01 09:42:35;;;;;;;3.03;1.65;;;;;;;;;;4994486;28;20046;-81
2021/07/01 09:45:05;;;;;;;2.30;1.67;;;;;;;;;;4991975;28;20096;-80
2021/07/01 09:47:36;;;;;;;2.90;1.85;;;;;;;;;;4985246;28;20046;-79
2021/07/01 09:50:04;;;;;;;3.92;1.70;;;;;;;;;;4989116;28;20073;-80
2021/07/01 09:52:32;;;;;;;2.85;1.40;;;;;;;;;;4990253;28;20043;-80
2021/07/01 09:55:01;;;;;;;2.40;1.65;;;;;;;;;;4994445;28;20053;-82
2021/07/01 09:57:31;;;;;;;2.88;1.63;;;;;;;;;;4995129;28;20046;-81
2021/07/01 10:00:00;;;;;;;3.45;1.75;;;;;;;;;;4996258;28;20450;-81
2021/07/01 10:02:26;;;;;;;2.80;1.60;;;;;;;;;;4995407;28;20050;-82
2021/07/01 10:04:53;;;;;;;2.88;1.70;;;;;;;;;;4995355;28;20483;-81
2021/07/01 10:07:21;;;;;;;2.78;1.73;;;;;;;;;;4995883;28;20054;-82
2021/07/01 10:09:53;;;;;;;3.38;1.95;;;;;;;;;;4995221;28;20046;-81
2021/07/01 10:12:22;;;;;;;4.90;2.53;;;;;;;;;;4995078;28;20495;-82
2021/07/01 10:14:50;;;;;;;3.10;1.95;;;;;;;;;;4995007;28;20384;-81
2021/07/01 10:17:18;;;;;;;3.30;1.90;;;;;;;;;;4995790;28;20340;-81
2021/07/01 10:19:45;;;;;;;3.35;1.90;;;;;;;;;;4993954;28;20046;-82
2021/07/01 10:22:13;;;;;;;4.32;2.05;;;;;;;;;;4996773;28;20046;-83
2021/07/01 10:24:54;;;;;;;3.30;2.10;;;;;;;;;;4997370;28;20133;-81
2021/07/01 10:27:34;;;;;;;4.18;2.00;;;;;;;;;;4997376;28;20051;-81
2021/07/01 10:30:03;;;;;;;3.30;1.85;;;;;;;;;;4997284;28;20043;-82
2021/07/01 10:32:40;;;;;;;3.35;2.03;;;;;;;;;;4995820;28;20050;-81
2021/07/01 10:35:20;;;;;;;3.58;2.10;;;;;;;;;;4990424;28;20039;-82
2021/07/01 10:37:58;;;;;;;3.83;2.25;;;;;;;;;;4978792;28;20133;-81
2021/07/01 10:40:24;;;;;;;5.88;2.15;;;;;;;;;;4988316;28;20054;-82
2021/07/01 10:42:55;;;;;;;3.85;2.30;;;;;;;;;;4991724;28;20070;-82
2021/07/01 10:45:22;;;;;;;6.82;2.55;;;;;;;;;;4978460;28;20043;-82
2021/07/01 10:47:48;;;;;;;4.60;2.90;;;;;;;;;;4990399;28;20046;-83
2021/07/01 10:50:30;;;;;;;2.55;1.70;;;;;;;;;;5001023;28;20047;-82
2021/07/01 10:52:57;;;;;;;4.32;2.50;;;;;;;;;;5002529;28;20513;-84
2021/07/01 10:55:24;;;;;;;5.22;2.60;;;;;;;;;;5002055;28;20054;-81
2021/07/01 10:57:55;;;;;;;3.28;2.03;;;;;;;;;;5002288;28;20419;-84
2021/07/01 11:00:37;;;;;;;3.75;1.75;;;;;;;;;;4992349;28;20050;-84
2021/07/01 11:03:04;;;;;;;3.75;2.65;;;;;;;;;;4982179;28;20058;-84
2021/07/01 11:05:34;;;;;;;5.45;2.17;;;;;;;;;;4982728;28;20050;-84
2021/07/01 11:08:01;;;;;;;3.42;2.00;;;;;;;;;;4984031;28;20046;-82
2021/07/01 11:10:34;;;;;;;4.00;2.13;;;;;;;;;;5002544;28;20077;-83
2021/07/01 11:13:07;;;;;;;3.08;2.17;;;;;;;;;;4983022;28;20042;-85
2021/07/01 11:15:34;;;;;;;6.80;2.90;;;;;;;;;;5001049;28;20064;-84
2021/07/01 11:18:08;;;;;;;5.05;2.90;;;;;;;;;;5003034;28;20046;-84
2021/07/01 11:20:34;;;;;;;4.38;2.55;;;;;;;;;;5003249;28;20081;-84
2021/07/01 11:23:02;;;;;;;4.93;2.42;;;;;;;;;;5003942;28;20058;-83
2021/07/01 11:25:34;;;;;;;5.13;2.97;;;;;;;;;;5003279;28;20050;-84
2021/07/01 11:28:21;;;;;;;5.00;3.08;;;;;;;;;;5004682;28;20574;-84
2021/07/01 11:30:53;;;;;;;4.28;2.42;;;;;;;;;;5004484;28;20101;-85
2021/07/01 11:33:20;;;;;;;3.65;2.30;;;;;;;;;;5005400;28;20102;-85
2021/07/01 11:35:48;;;;;;;5.07;2.65;;;;;;;;;;5004425;28;20050;-84
2021/07/01 11:38:28;;;;;;;4.90;2.67;;;;;;;;;;4991135;28;20047;-83
2021/07/01 11:40:56;;;;;;;6.07;2.80;;;;;;;;;;4977125;28;20051;-82
2021/07/01 11:43:24;;;;;;;4.63;2.60;;;;;;;;;;4977529;28;20043;-82
2021/07/01 11:45:51;;;;;;;3.78;2.25;;;;;;;;;;4988902;28;20046;-81
2021/07/01 11:48:20;;;;;;;4.85;2.60;;;;;;;;;;4996352;28;20042;-82
2021/07/01 11:50:48;;;;;;;5.30;2.70;;;;;;;;;;4996145;28;20058;-82
2021/07/01 11:53:15;;;;;;;4.82;2.65;;;;;;;;;;4996115;28;20054;-82
2021/07/01 11:55:42;;;;;;;3.97;2.47;;;;;;;;;;4996339;28;20491;-82
2021/07/01 11:58:09;;;;;;;3.97;2.22;;;;;;;;;;4996436;28;20049;-82
2021/07/01 12:00:37;;;;;;;3.92;2.47;;;;;;;;;;4996333;28;20137;-85
2021/07/01 12:03:05;;;;;;;6.53;3.08;;;;;;;;;;4995818;28;20050;-84
2021/07/01 12:05:32;;;;;;;4.35;3.17;;;;;;;;;;4996232;28;20054;-81
2021/07/01 12:07:58;;;;;;;4.18;2.17;;;;;;;;;;4996478;28;20034;-82
2021/07/01 12:10:25;;;;;;;5.05;3.13;;;;;;;;;;4996670;28;20050;-82
2021/07/01 12:12:52;;;;;;;4.70;2.95;;;;;;;;;;4996337;28;20054;-82
2021/07/01 12:15:19;;;;;;;3.88;2.13;;;;;;;;;;4995424;28;20639;-81
2021/07/01 12:17:55;;;;;;;3.47;2.10;;;;;;;;;;4996142;28;20061;-83
2021/07/01 12:20:33;;;;;;;4.45;2.20;;;;;;;;;;4995202;28;20546;-82
2021/07/01 12:23:00;;;;;;;3.78;1.75;;;;;;;;;;4996239;28;20083;-83
2021/07/01 12:25:41;;;;;;;5.60;2.38;;;;;;;;;;4996075;28;20054;-82
2021/07/01 12:28:10;;;;;;;3.95;2.40;;;;;;;;;;4990449;28;20715;-82
2021/07/01 12:31:02;;;;;;;4.22;2.45;;;;;;;;;;4991623;28;20050;-82
2021/07/01 12:33:45;;;;;;;3.80;2.17;;;;;;;;;;4995280;28;20483;-84
2021/07/01 12:36:26;;;;;;;2.83;1.67;;;;;;;;;;4996302;28;20101;-83
2021/07/01 12:39:15;;;;;;;5.47;2.40;;;;;;;;;;4994943;28;20101;-82
2021/07/01 12:41:43;;;;;;;3.65;1.98;;;;;;;;;;4995949;28;20134;-81
2021/07/01 12:44:10;;;;;;;4.47;2.33;;;;;;;;;;4995071;28;20062;-82
2021/07/01 12:47:05;;;;;;;3.97;2.42;;;;;;;;;;4995283;28;20104;-82
2021/07/01 12:49:52;;;;;;;3.40;2.28;;;;;;;;;;4991592;28;20042;-82
2021/07/01 12:52:33;;;;;;;3.33;2.10;;;;;;;;;;4994390;28;20112;-85
2021/07/01 12:55:01;;;;;;;3.55;1.80;;;;;;;;;;4994388;28;20046;-82
2021/07/01 12:57:27;;;;;;;3.83;2.50;;;;;;;;;;4994694;28;20058;-83
2021/07/01 12:59:55;;;;;;;4.28;2.10;;;;;;;;;;4995796;28;20062;-82
2021/07/01 13:02:27;;;;;;;3.60;2.33;;;;;;;;;;4996406;28;20043;-83
2021/07/01 13:04:57;;;;;;;3.72;2.38;;;;;;;;;;4994988;28;20137;-85
2021/07/01 13:07:27;;;;;;;4.25;2.60;;;;;;;;;;4999956;28;20057;-82
2021/07/01 13:09:54;;;;;;;4.20;2.42;;;;;;;;;;4996473;28;20056;-84
2021/07/01 13:12:28;;;;;;;4.22;2.38;;;;;;;;;;4995093;28;20053;-81
2021/07/01 13:14:55;;;;;;;3.10;2.35;;;;;;;;;;4994906;28;20097;-85
2021/07/01 13:17:23;;;;;;;2.88;2.10;;;;;;;;;;4994742;28;20065;-81
2021/07/01 13:19:51;;;;;;;4.00;2.50;;;;;;;;;;4994118;28;20053;-81
2021/07/01 13:22:20;;;;;;;2.80;2.08;;;;;;;;;;4994830;28;20061;-83
2021/07/01 13:24:51;;;;;;;3.63;2.22;;;;;;;;;;4994789;28;20506;-82
2021/07/01 13:27:29;;;;;;;6.35;3.03;;;;;;;;;;4975397;28;20419;-83
2021/07/01 13:29:56;;;;;;;2.65;1.90;;;;;;;;;;4994023;28;20050;-83
2021/07/01 13:32:24;;;;;;;3.35;2.28;;;;;;;;;;4997060;28;20046;-81
2021/07/01 13:34:51;;;;;;;7.65;3.22;;;;;;;;;;4991368;28;20074;-81
2021/07/01 13:37:20;;;;;;;4.65;2.88;;;;;;;;;;4989887;28;20407;-81
2021/07/01 13:39:47;;;;;;;4.15;2.47;;;;;;;;;;4990544;28;20051;-83
2021/07/01 13:42:24;;;;;;;4.55;2.50;;;;;;;;;;4977845;28;20413;-81
2021/07/01 13:44:58;;;;;;;3.88;2.45;;;;;;;;;;4989720;28;20047;-81
2021/07/01 13:47:25;;;;;;;4.35;2.45;;;;;;;;;;4973957;28;20050;-80
2021/07/01 13:49:52;;;;;;;5.00;2.35;;;;;;;;;;4982472;28;20070;-80
2021/07/01 13:52:20;;;;;;;3.80;2.15;;;;;;;;;;4988092;28;20053;-81
2021/07/01 13:54:47;;;;;;;3.80;1.98;;;;;;;;;;4974605;28;20058;-81
2021/07/01 13:57:13;;;;;;;6.05;2.30;;;;;;;;;;4979529;28;20057;-80
2021/07/01 13:59:40;;;;;;;5.07;2.33;;;;;;;;;;4991879;28;20379;-82
2021/07/01 14:02:18;;;;;;;3.47;2.35;;;;;;;;;;4990183;28;20038;-82
2021/07/01 14:04:45;;;;;;;3.17;2.10;;;;;;;;;;4982281;28;20039;-81
2021/07/01 14:07:11;;;;;;;3.88;2.22;;;;;;;;;;4978888;28;20042;-81
2021/07/01 14:09:39;;;;;;;3.13;2.08;;;;;;;;;;4990709;28;20055;-80
2021/07/01 14:12:06;;;;;;;5.35;2.22;;;;;;;;;;4993313;28;20479;-80
2021/07/01 14:14:32;;;;;;;3.13;2.10;;;;;;;;;;4993355;28;20042;-80
2021/07/01 14:17:01;;;;;;;4.50;2.20;;;;;;;;;;4983693;28;20054;-80
2021/07/01 14:19:28;;;;;;;3.22;1.88;;;;;;;;;;4991195;28;20053;-81
2021/07/01 14:21:55;;;;;;;2.65;1.50;;;;;;;;;;4975838;28;20460;-82
2021/07/01 14:24:23;;;;;;;2.95;1.50;;;;;;;;;;4989192;28;20046;-81
2021/07/01 14:26:53;;;;;;;2.58;1.40;;;;;;;;;;4980138;28;20050;-81
2021/07/01 14:29:21;;;;;;;3.55;1.58;;;;;;;;;;4990091;28;20557;-81
2021/07/01 14:31:48;;;;;;;3.10;1.73;;;;;;;;;;4984022;28;20043;-81
2021/07/01 14:34:15;;;;;;;2.70;1.52;;;;;;;;;;4996687;28;20402;-84
2021/07/01 14:36:46;;;;;;;2.90;1.30;;;;;;;;;;4997240;28;20061;-81
2021/07/01 14:39:12;;;;;;;3.45;1.50;;;;;;;;;;4994336;28;20046;-82
2021/07/01 14:41:41;;;;;;;2.33;1.35;;;;;;;;;;4984033;28;20054;-81
2021/07/01 14:44:10;;;;;;;3.17;1.35;;;;;;;;;;4993459;28;20043;-82
2021/07/01 14:46:40;;;;;;;2.88;1.60;;;;;;;;;;4994439;28;20077;-82
2021/07/01 14:49:16;;;;;;;2.95;1.67;;;;;;;;;;4994845;28;20074;-83
2021/07/01 14:51:45;;;;;;;4.25;1.50;;;;;;;;;;4996391;28;20046;-81